Terminal Aerodrome Forecast
Issued by NWS

Home | Current Version | Previous Version | Text Only | Print | Product List | Glossary On
Versions: 1 2 3 4 5 6 7 8 9 10 11 12 13 14 15
000
FTUS45 KABQ 031700
TAFAEG
TAF
KAEG 031738Z 0318/0418 22007KT P6SM SCT050 BKN080
     FM032000 25015G22KT P6SM SCT050 BKN080
     FM040200 27008KT P6SM SCT040 BKN080
      TEMPO 0408/0412 35006KT
     FM041200 31007KT P6SM SCT030 SCT070
     FM041700 32015G22KT P6SM FEW030 SCT070=

USA.gov is the U.S. government's official web portal to all federal, state and local government web resources and services.